createdAt,value
2022-12-15T00:02:42.660Z,58.19
2022-12-15T00:05:35.840Z,58.28
2022-12-15T00:08:31.796Z,58.37
2022-12-15T00:11:26.242Z,58.37
2022-12-15T00:14:16.312Z,58.41
2022-12-15T00:17:06.708Z,58.43
2022-12-15T00:20:00.613Z,58.36
2022-12-15T00:22:51.544Z,58.61
2022-12-15T00:25:42.561Z,58.50
2022-12-15T00:28:34.221Z,58.35
2022-12-15T00:31:26.341Z,58.22
2022-12-15T00:34:17.315Z,58.52
2022-12-15T00:37:08.792Z,58.61
2022-12-15T00:39:42.185Z,58.66
2022-12-15T00:42:18.904Z,58.60
2022-12-15T00:44:55.847Z,58.68
2022-12-15T00:47:29.351Z,58.62
2022-12-15T00:50:21.433Z,58.78
2022-12-15T00:53:13.571Z,58.77
2022-12-15T00:56:07.445Z,58.74
2022-12-15T00:58:58.047Z,58.77
2022-12-15T01:01:49.779Z,58.79
2022-12-15T01:04:41.562Z,58.76
2022-12-15T01:07:32.876Z,58.95
2022-12-15T01:10:23.872Z,58.88
2022-12-15T01:13:14.869Z,59.03
2022-12-15T01:16:06.083Z,59.00
2022-12-15T01:18:59.603Z,59.00
2022-12-15T01:21:35.503Z,58.95
2022-12-15T01:24:10.057Z,58.95
2022-12-15T01:26:44.412Z,58.76
2022-12-15T01:29:17.783Z,58.80
2022-12-15T01:31:52.813Z,58.90
2022-12-15T01:34:25.812Z,58.84
2022-12-15T01:36:59.432Z,58.92
2022-12-15T01:39:53.521Z,59.00
2022-12-15T01:42:27.329Z,59.04
2022-12-15T01:45:29.346Z,59.03
2022-12-15T01:48:06.036Z,59.08
2022-12-15T01:50:41.443Z,59.05
2022-12-15T01:53:15.929Z,59.08
2022-12-15T01:55:51.240Z,59.21
2022-12-15T01:58:24.315Z,59.07
2022-12-15T02:00:57.888Z,59.18
2022-12-15T02:03:31.977Z,59.28
2022-12-15T02:06:06.837Z,59.28
2022-12-15T02:08:43.320Z,59.28
2022-12-15T02:11:28.397Z,59.15
2022-12-15T02:14:04.411Z,59.15
2022-12-15T02:16:43.291Z,59.26
2022-12-15T02:19:39.086Z,59.28
2022-12-15T02:22:22.374Z,59.22
2022-12-15T02:25:12.403Z,59.19
2022-12-15T02:27:52.182Z,59.15
2022-12-15T02:30:36.334Z,59.22
2022-12-15T02:33:14.256Z,59.20
2022-12-15T02:35:55.983Z,59.36
2022-12-15T02:38:38.702Z,59.44
2022-12-15T02:41:41.241Z,59.16
2022-12-15T02:44:21.716Z,59.10
2022-12-15T02:47:16.783Z,59.09
2022-12-15T02:50:05.857Z,59.00
2022-12-15T02:53:09.384Z,59.17
2022-12-15T02:55:51.390Z,59.18
2022-12-15T02:58:33.834Z,59.20
2022-12-15T03:01:09.889Z,59.15
2022-12-15T03:03:43.698Z,59.10
2022-12-15T03:06:16.365Z,59.15
2022-12-15T03:08:49.525Z,59.12
2022-12-15T03:11:22.531Z,59.09
2022-12-15T03:13:56.417Z,59.14
2022-12-15T03:16:29.592Z,59.21
2022-12-15T03:19:02.171Z,58.98
2022-12-15T03:21:36.301Z,59.08
2022-12-15T03:24:10.045Z,59.08
2022-12-15T03:26:43.865Z,59.07
2022-12-15T03:29:16.145Z,59.14
2022-12-15T03:31:52.244Z,59.15
2022-12-15T03:34:24.995Z,59.21
2022-12-15T03:36:59.395Z,59.13
2022-12-15T03:39:32.414Z,59.14
2022-12-15T03:42:06.328Z,59.18
2022-12-15T03:44:38.369Z,59.36
2022-12-15T03:47:11.049Z,59.33
2022-12-15T03:49:44.350Z,59.22
2022-12-15T03:52:17.606Z,59.31
2022-12-15T03:54:51.258Z,59.37
2022-12-15T03:57:27.428Z,59.33
2022-12-15T04:00:01.233Z,59.34
2022-12-15T04:02:42.393Z,59.25
2022-12-15T04:05:17.470Z,59.38
2022-12-15T04:07:50.950Z,59.26
2022-12-15T04:10:31.745Z,59.46
2022-12-15T04:13:09.288Z,59.42
2022-12-15T04:15:43.561Z,59.45
2022-12-15T04:18:16.706Z,59.15
2022-12-15T04:20:52.996Z,59.08
2022-12-15T04:23:26.311Z,59.15
2022-12-15T04:26:16.153Z,59.28
2022-12-15T04:29:08.201Z,59.13
2022-12-15T04:32:04.215Z,59.10
2022-12-15T04:34:56.778Z,59.07
2022-12-15T04:37:46.317Z,59.14
2022-12-15T04:40:37.021Z,59.17
2022-12-15T04:43:30.115Z,59.12
2022-12-15T04:46:21.232Z,59.10
2022-12-15T04:49:14.555Z,59.17
2022-12-15T04:52:09.596Z,59.23
2022-12-15T04:55:01.007Z,59.27
2022-12-15T04:57:52.369Z,59.25
2022-12-15T05:00:45.084Z,59.15
2022-12-15T05:03:35.315Z,59.16
2022-12-15T05:06:28.753Z,59.28
2022-12-15T05:09:21.184Z,59.10
2022-12-15T05:12:12.001Z,59.26
2022-12-15T05:15:07.920Z,59.15
2022-12-15T05:17:58.891Z,59.14
2022-12-15T05:20:49.952Z,59.08
2022-12-15T05:23:40.314Z,59.11
2022-12-15T05:26:34.002Z,58.96
2022-12-15T05:29:28.275Z,59.07
2022-12-15T05:32:00.212Z,58.97
2022-12-15T05:34:33.643Z,59.09
2022-12-15T05:37:07.034Z,58.81
2022-12-15T05:39:38.924Z,58.82
2022-12-15T05:42:11.632Z,58.89
2022-12-15T05:44:46.709Z,58.79
2022-12-15T05:47:19.290Z,58.75
2022-12-15T05:49:53.352Z,58.78
2022-12-15T05:52:28.696Z,58.59
2022-12-15T05:55:06.858Z,58.50
2022-12-15T05:57:41.410Z,58.59
2022-12-15T06:00:17.023Z,58.59
2022-12-15T06:02:52.616Z,58.69
2022-12-15T06:05:25.005Z,58.33
2022-12-15T06:07:58.684Z,57.92
2022-12-15T06:10:31.612Z,57.93
2022-12-15T06:13:07.345Z,58.00
2022-12-15T06:15:41.486Z,57.75
2022-12-15T06:18:15.299Z,57.94
2022-12-15T06:20:47.658Z,57.68
2022-12-15T06:23:23.761Z,57.63
2022-12-15T06:25:58.072Z,57.61
2022-12-15T06:28:30.171Z,57.66
2022-12-15T06:31:07.141Z,57.63
2022-12-15T06:33:40.452Z,57.83
2022-12-15T06:36:15.240Z,57.87
2022-12-15T06:38:49.948Z,57.89
2022-12-15T06:41:24.545Z,57.70
2022-12-15T06:43:59.538Z,57.59
2022-12-15T06:46:33.668Z,57.67
2022-12-15T06:49:06.459Z,57.77
2022-12-15T06:51:41.968Z,57.59
2022-12-15T06:54:14.517Z,57.14
2022-12-15T06:56:47.083Z,57.17
2022-12-15T06:59:22.968Z,57.07
2022-12-15T07:01:57.382Z,56.90
2022-12-15T07:04:31.779Z,56.84
2022-12-15T07:07:08.283Z,56.52
2022-12-15T07:09:44.666Z,56.69
2022-12-15T07:12:18.098Z,56.85
2022-12-15T07:14:53.516Z,56.95
2022-12-15T07:17:25.902Z,57.02
2022-12-15T07:20:00.138Z,56.77
2022-12-15T07:22:33.603Z,56.66
2022-12-15T07:25:07.666Z,56.52
2022-12-15T07:27:39.510Z,56.70
2022-12-15T07:30:14.854Z,56.55
2022-12-15T07:32:50.053Z,56.60
2022-12-15T07:35:23.572Z,56.46
2022-12-15T07:37:56.246Z,56.46
2022-12-15T07:40:30.531Z,56.61
2022-12-15T07:43:04.085Z,56.72
2022-12-15T07:45:36.348Z,56.46
2022-12-15T07:48:12.060Z,56.15
2022-12-15T07:50:44.704Z,56.29
2022-12-15T07:53:18.010Z,56.22
2022-12-15T07:56:07.514Z,56.41
2022-12-15T07:58:42.641Z,56.08
2022-12-15T08:01:19.977Z,55.70
2022-12-15T08:03:53.156Z,56.03
2022-12-15T08:06:26.764Z,55.90
2022-12-15T08:09:01.258Z,55.97
2022-12-15T08:11:35.746Z,55.79
2022-12-15T08:14:15.234Z,56.02
2022-12-15T08:16:50.302Z,55.84
2022-12-15T08:19:24.312Z,55.64
2022-12-15T08:21:57.452Z,55.85
2022-12-15T08:24:31.392Z,55.67
2022-12-15T08:27:04.489Z,55.45
2022-12-15T08:29:53.843Z,55.22
2022-12-15T08:32:26.946Z,55.50
2022-12-15T08:35:01.021Z,55.46
2022-12-15T08:37:37.813Z,55.39
2022-12-15T08:40:12.810Z,54.88
2022-12-15T08:42:45.685Z,55.05
2022-12-15T08:45:18.974Z,55.29
2022-12-15T08:47:51.301Z,55.45
2022-12-15T08:50:26.516Z,54.94
2022-12-15T08:53:28.886Z,55.18
2022-12-15T08:55:52.501Z,55.17
2022-12-15T08:58:26.268Z,54.92
2022-12-15T09:01:05.551Z,54.95
2022-12-15T09:03:39.082Z,54.76
2022-12-15T09:06:15.267Z,54.67
2022-12-15T09:08:50.551Z,54.64
2022-12-15T09:11:23.581Z,54.57
2022-12-15T09:13:57.559Z,54.59
2022-12-15T09:16:31.253Z,53.78
2022-12-15T09:19:04.508Z,53.83
2022-12-15T09:21:39.934Z,53.91
2022-12-15T09:24:24.752Z,53.70
2022-12-15T09:27:03.856Z,53.30
2022-12-15T09:29:36.815Z,53.86
2022-12-15T09:32:14.027Z,53.95
2022-12-15T09:34:48.952Z,53.84
2022-12-15T09:37:26.789Z,53.96
2022-12-15T09:40:01.134Z,53.76
2022-12-15T09:42:34.448Z,53.81
2022-12-15T09:45:13.401Z,53.85
2022-12-15T09:47:52.925Z,53.39
2022-12-15T09:50:30.808Z,53.09
2022-12-15T09:53:17.812Z,53.32
2022-12-15T09:56:13.029Z,53.34
2022-12-15T09:58:50.625Z,53.28
2022-12-15T10:01:29.264Z,53.01
2022-12-15T10:04:08.122Z,53.03
2022-12-15T10:06:44.674Z,52.37
2022-12-15T10:09:27.552Z,52.88
2022-12-15T10:12:03.642Z,52.55
2022-12-15T10:14:41.973Z,52.41
2022-12-15T10:17:26.015Z,52.82
2022-12-15T10:20:04.354Z,52.54
2022-12-15T10:22:39.566Z,52.26
2022-12-15T10:25:23.503Z,52.04
2022-12-15T10:28:26.524Z,52.70
2022-12-15T10:31:03.888Z,53.30
2022-12-15T10:33:47.037Z,53.23
2022-12-15T10:36:22.359Z,52.90
2022-12-15T10:38:55.468Z,52.47
2022-12-15T10:41:27.909Z,52.05
2022-12-15T10:44:03.295Z,51.84
2022-12-15T10:46:37.717Z,52.03
2022-12-15T10:52:16.745Z,52.20
2022-12-15T10:54:51.379Z,52.27
2022-12-15T10:57:29.149Z,52.63
2022-12-15T11:00:33.512Z,52.73
2022-12-15T11:03:24.383Z,52.91
2022-12-15T11:05:59.250Z,52.68
2022-12-15T11:08:32.562Z,52.57
2022-12-15T11:14:24.758Z,52.59
2022-12-15T11:16:59.300Z,51.94
2022-12-15T11:19:35.221Z,52.29
2022-12-15T11:22:17.619Z,52.62
2022-12-15T11:24:54.032Z,52.20
2022-12-15T11:27:32.227Z,52.45
2022-12-15T11:30:14.530Z,52.49
2022-12-15T11:32:50.902Z,52.50
2022-12-15T11:35:27.447Z,52.58
2022-12-15T11:38:04.554Z,52.32
2022-12-15T11:40:43.550Z,52.16
2022-12-15T11:43:35.947Z,52.22
2022-12-15T11:46:23.145Z,52.54
2022-12-15T11:49:09.529Z,52.43
2022-12-15T11:51:45.675Z,52.22
2022-12-15T11:54:25.179Z,51.95
2022-12-15T11:57:02.601Z,51.82
2022-12-15T11:59:55.224Z,51.64
2022-12-15T12:03:01.236Z,51.65
2022-12-15T12:05:56.224Z,51.83
2022-12-15T12:08:47.067Z,52.10
2022-12-15T12:11:29.482Z,52.09
2022-12-15T12:14:19.882Z,52.16
2022-12-15T12:16:58.625Z,52.47
2022-12-15T12:19:38.094Z,52.41
2022-12-15T12:22:22.548Z,52.56
2022-12-15T12:25:01.783Z,52.47
2022-12-15T12:27:39.927Z,52.36
2022-12-15T12:30:17.442Z,52.95
2022-12-15T12:32:54.586Z,53.03
2022-12-15T12:35:35.105Z,52.88
2022-12-15T12:38:10.557Z,52.57
2022-12-15T12:41:07.471Z,52.54
2022-12-15T12:43:43.808Z,52.65
2022-12-15T12:46:18.884Z,52.75
2022-12-15T12:48:56.164Z,52.31
2022-12-15T12:51:31.321Z,52.39
2022-12-15T12:54:06.116Z,52.40
2022-12-15T12:56:45.620Z,52.35
2022-12-15T12:59:39.472Z,52.45
2022-12-15T13:02:45.580Z,52.40
2022-12-15T13:05:33.987Z,52.44
2022-12-15T13:08:37.875Z,52.42
2022-12-15T13:11:41.982Z,52.72
2022-12-15T13:14:25.628Z,53.08
2022-12-15T13:20:27.096Z,53.17
2022-12-15T13:23:37.537Z,53.13
2022-12-15T13:26:17.439Z,53.12
2022-12-15T13:28:53.052Z,53.18
2022-12-15T13:31:33.657Z,53.20
2022-12-15T13:34:22.758Z,53.15
2022-12-15T13:37:04.274Z,53.15
2022-12-15T13:42:57.883Z,53.15
2022-12-15T13:45:51.100Z,53.04
2022-12-15T13:48:38.317Z,53.11
2022-12-15T13:51:22.777Z,53.05
2022-12-15T13:54:01.468Z,52.99
2022-12-15T13:56:52.507Z,52.55
2022-12-15T13:59:30.885Z,53.06
2022-12-15T14:02:03.750Z,53.33
2022-12-15T14:04:36.609Z,53.25
2022-12-15T14:07:08.935Z,53.19
2022-12-15T14:09:43.668Z,52.95
2022-12-15T14:12:16.584Z,53.17
2022-12-15T14:14:49.620Z,53.13
2022-12-15T14:17:21.785Z,53.36
2022-12-15T14:19:54.217Z,53.40
2022-12-15T14:22:29.623Z,53.66
2022-12-15T14:25:16.201Z,53.55
2022-12-15T14:27:51.051Z,53.30
2022-12-15T14:30:28.376Z,53.81
2022-12-15T14:33:03.434Z,53.45
2022-12-15T14:35:39.034Z,53.38
2022-12-15T14:38:16.448Z,53.46
2022-12-15T14:40:49.892Z,53.68
2022-12-15T14:43:25.174Z,53.71
2022-12-15T14:46:06.551Z,53.63
2022-12-15T14:48:44.378Z,53.70
2022-12-15T14:51:18.146Z,53.75
2022-12-15T14:53:53.743Z,53.81
2022-12-15T14:56:32.127Z,53.75
2022-12-15T14:59:06.389Z,53.98
2022-12-15T15:01:57.920Z,54.17
2022-12-15T15:03:11.751Z,52.16
2022-12-15T15:04:33.857Z,54.18
2022-12-15T15:07:08.608Z,54.26
2022-12-15T15:09:43.367Z,54.34
2022-12-15T15:12:18.649Z,54.11
2022-12-15T15:14:53.140Z,54.08
2022-12-15T15:17:27.368Z,54.05
2022-12-15T15:20:03.893Z,53.93
2022-12-15T15:22:40.969Z,53.84
2022-12-15T15:25:41.315Z,53.93
2022-12-15T15:28:21.938Z,54.12
2022-12-15T15:30:56.263Z,53.74
2022-12-15T15:33:29.351Z,53.91
2022-12-15T15:36:05.387Z,53.92
2022-12-15T15:38:39.481Z,54.20
2022-12-15T15:41:19.533Z,54.37
2022-12-15T15:43:51.982Z,54.46
2022-12-15T15:46:25.954Z,54.46
2022-12-15T15:48:59.754Z,54.40
2022-12-15T15:51:32.923Z,54.38
2022-12-15T15:54:06.782Z,54.48
2022-12-15T15:56:39.250Z,54.50
2022-12-15T15:59:14.553Z,54.59
2022-12-15T16:01:47.907Z,54.65
2022-12-15T16:04:20.245Z,54.52
2022-12-15T16:06:52.411Z,54.49
2022-12-15T16:09:25.400Z,54.22
2022-12-15T16:11:57.892Z,54.30
2022-12-15T16:14:30.390Z,54.41
2022-12-15T16:17:02.679Z,54.19
2022-12-15T16:19:39.586Z,54.32
2022-12-15T16:22:16.488Z,54.27
2022-12-15T16:24:48.912Z,54.09
2022-12-15T16:27:21.257Z,53.89
2022-12-15T16:29:53.420Z,54.30
2022-12-15T16:32:25.497Z,54.55
2022-12-15T16:34:58.887Z,54.27
2022-12-15T16:37:36.205Z,54.23
2022-12-15T16:40:20.236Z,54.47
2022-12-15T16:43:00.089Z,54.58
2022-12-15T16:45:33.262Z,54.56
2022-12-15T16:48:05.678Z,54.79
2022-12-15T16:50:39.611Z,54.85
2022-12-15T16:53:17.620Z,54.60
2022-12-15T16:55:51.854Z,54.73
2022-12-15T16:58:25.214Z,54.86
2022-12-15T17:00:57.296Z,55.02
2022-12-15T17:03:29.592Z,55.05
2022-12-15T17:06:04.208Z,55.09
2022-12-15T17:08:41.414Z,54.96
2022-12-15T17:11:18.673Z,55.06
2022-12-15T17:13:51.864Z,55.04
2022-12-15T17:16:25.732Z,55.15
2022-12-15T17:18:58.374Z,55.27
2022-12-15T17:21:33.002Z,55.10
2022-12-15T17:24:07.971Z,55.20
2022-12-15T17:26:40.948Z,55.28
2022-12-15T17:29:18.056Z,55.46
2022-12-15T17:31:50.142Z,55.48
2022-12-15T17:34:32.573Z,55.46
2022-12-15T17:37:06.349Z,55.53
2022-12-15T17:39:38.905Z,55.72
2022-12-15T17:42:19.648Z,55.58
2022-12-15T17:44:52.284Z,55.66
2022-12-15T17:47:28.000Z,55.71
2022-12-15T17:50:00.212Z,55.83
2022-12-15T17:52:34.558Z,56.01
2022-12-15T17:55:18.055Z,56.18
2022-12-15T17:57:50.364Z,56.08
2022-12-15T18:00:26.300Z,56.09
2022-12-15T18:02:59.465Z,55.95
2022-12-15T18:05:32.685Z,55.77
2022-12-15T18:08:08.406Z,56.08
2022-12-15T18:10:41.367Z,56.04
2022-12-15T18:13:20.092Z,55.98
2022-12-15T18:15:52.481Z,55.91
2022-12-15T18:18:25.236Z,55.76
2022-12-15T18:21:00.330Z,55.83
2022-12-15T18:23:33.476Z,55.90
2022-12-15T18:26:08.329Z,56.08
2022-12-15T18:28:40.275Z,56.12
2022-12-15T18:31:18.961Z,56.14
2022-12-15T18:33:51.361Z,56.09
2022-12-15T18:36:24.111Z,56.15
2022-12-15T18:38:56.050Z,56.10
2022-12-15T18:41:28.028Z,56.20
2022-12-15T18:44:00.062Z,56.30
2022-12-15T18:46:32.120Z,56.31
2022-12-15T18:49:09.279Z,56.18
2022-12-15T18:51:42.001Z,56.24
2022-12-15T18:54:18.328Z,56.30
2022-12-15T18:56:50.473Z,56.25
2022-12-15T18:59:24.247Z,56.13
2022-12-15T19:01:56.406Z,56.37
2022-12-15T19:04:28.483Z,56.19
2022-12-15T19:07:06.697Z,56.10
2022-12-15T19:09:38.718Z,56.43
2022-12-15T19:12:19.088Z,56.42
2022-12-15T19:14:52.772Z,56.49
2022-12-15T19:17:45.047Z,56.33
2022-12-15T19:20:38.172Z,56.59
2022-12-15T19:23:10.984Z,56.45
2022-12-15T19:25:43.390Z,56.10
2022-12-15T19:28:17.661Z,56.41
2022-12-15T19:30:49.595Z,56.42
2022-12-15T19:33:25.319Z,56.22
2022-12-15T19:35:57.569Z,56.30
2022-12-15T19:38:31.855Z,56.52
2022-12-15T19:41:03.887Z,56.55
2022-12-15T19:43:36.349Z,56.59
2022-12-15T19:46:09.961Z,56.43
2022-12-15T19:48:43.777Z,56.28
2022-12-15T19:51:17.145Z,56.40
2022-12-15T19:53:50.240Z,56.23
2022-12-15T19:56:24.172Z,56.35
2022-12-15T19:58:56.881Z,56.42
2022-12-15T20:01:32.252Z,56.36
2022-12-15T20:04:05.228Z,56.31
2022-12-15T20:06:38.589Z,56.53
2022-12-15T20:09:13.087Z,56.51
2022-12-15T20:11:46.278Z,56.31
2022-12-15T20:14:20.033Z,56.43
2022-12-15T20:16:52.956Z,56.50
2022-12-15T20:19:25.855Z,56.73
2022-12-15T20:21:58.355Z,56.79
2022-12-15T20:24:31.804Z,56.70
2022-12-15T20:27:10.185Z,56.44
2022-12-15T20:29:44.631Z,56.57
2022-12-15T20:32:19.586Z,56.56
2022-12-15T20:34:51.831Z,56.56
2022-12-15T20:37:27.008Z,56.58
2022-12-15T20:40:00.504Z,56.49
2022-12-15T20:42:33.542Z,56.13
2022-12-15T20:49:08.207Z,56.32
2022-12-15T20:51:42.888Z,56.47
2022-12-15T20:54:18.514Z,56.37
2022-12-15T20:56:52.867Z,56.36
2022-12-15T20:59:26.551Z,56.35
2022-12-15T21:02:01.018Z,56.46
2022-12-15T21:04:34.848Z,56.45
2022-12-15T21:07:10.983Z,56.19
2022-12-15T21:09:44.566Z,56.21
2022-12-15T21:12:21.363Z,56.17
2022-12-15T21:14:54.879Z,56.32
2022-12-15T21:17:29.886Z,56.48
2022-12-15T21:20:05.887Z,56.43
2022-12-15T21:22:38.929Z,56.10
2022-12-15T21:25:24.509Z,56.21
2022-12-15T21:27:57.358Z,56.23
2022-12-15T21:30:33.588Z,56.32
2022-12-15T21:33:06.212Z,56.36
2022-12-15T21:35:40.181Z,56.26
2022-12-15T21:38:27.979Z,56.49
2022-12-15T21:41:02.253Z,56.35
2022-12-15T21:43:39.883Z,56.35
2022-12-15T21:46:17.297Z,56.23
2022-12-15T21:49:08.645Z,56.12
2022-12-15T21:51:43.881Z,56.47
2022-12-15T21:54:26.028Z,56.66
2022-12-15T21:57:09.134Z,56.25
2022-12-15T21:59:42.997Z,56.48
2022-12-15T22:02:27.039Z,56.28
2022-12-15T22:05:00.231Z,56.62
2022-12-15T22:07:35.410Z,56.68
2022-12-15T22:10:09.462Z,56.71
2022-12-15T22:12:43.896Z,56.71
2022-12-15T22:15:22.131Z,56.42
2022-12-15T22:17:55.922Z,56.47
2022-12-15T22:20:51.646Z,56.43
2022-12-15T22:49:37.927Z,56.87
2022-12-15T22:52:17.584Z,56.80
2022-12-15T22:54:50.714Z,56.90
2022-12-15T22:57:27.052Z,56.80
2022-12-15T23:00:05.714Z,56.94
2022-12-15T23:02:41.985Z,56.93
2022-12-15T23:05:16.919Z,57.10
2022-12-15T23:07:51.387Z,57.11
2022-12-15T23:10:42.181Z,57.29
2022-12-15T23:13:14.521Z,57.29
2022-12-15T23:16:04.042Z,57.18
2022-12-15T23:18:37.341Z,57.18
2022-12-15T23:21:10.541Z,57.06
2022-12-15T23:23:43.642Z,57.05
2022-12-15T23:26:16.466Z,57.29
2022-12-15T23:28:53.088Z,57.16
2022-12-15T23:31:28.549Z,57.18
2022-12-15T23:34:02.222Z,57.23
2022-12-15T23:36:34.798Z,57.37
2022-12-15T23:39:10.382Z,57.41
2022-12-15T23:41:45.894Z,57.13
2022-12-15T23:44:18.811Z,56.97
2022-12-15T23:46:50.975Z,57.48
2022-12-15T23:49:23.741Z,57.53
2022-12-15T23:51:57.624Z,57.57
2022-12-15T23:54:31.206Z,57.54
2022-12-15T23:57:04.785Z,57.53
2022-12-15T23:59:38.078Z,57.37
